EA7RX-13 Weather Reports


Display with metric or nautical units.
time (UTC)temp
F
wind
direction
speed
MPH
gust
MPH
rain 1hr
in
rain 24hr
in
rain mn
in
humidity
%
barometer
mb
20240714234609 75 0.0 0.0 0.00 0.00 0.00 42 1012.8
20240714233609 75 0.0 0.0 0.00 0.00 0.00 42 1012.8
20240714232609 76 0.0 0.0 0.00 0.00 0.00 41 1012.6
20240714231609 76 0.0 0.0 0.00 0.00 0.00 40 1012.6
20240714230609 76 0.0 0.0 0.00 0.00 0.00 40 1012.7
20240714225608 77 0.0 0.0 0.00 0.00 0.00 38 1012.5
20240714224609 77 0.0 0.0 0.00 0.00 0.00 40 1012.5
20240714223608 78 0.0 0.0 0.00 0.00 0.00 37 1012.4
20240714222609 78 0.0 0.0 0.00 0.00 0.00 37 1012.3
20240714221609 80 0.0 0.0 0.00 0.00 0.00 36 1012.2
20240714220608 80 0.0 0.0 0.00 0.00 0.00 35 1012.1
20240714215608 80 0.0 0.0 0.00 0.00 0.00 36 1012.2
20240714214608 81 0.0 0.0 0.00 0.00 0.00 34 1012.0
20240714213608 80 0.0 0.0 0.00 0.00 0.00 36 1012.1
20240714212608 81 0.0 0.0 0.00 0.00 0.00 35 1012.0
20240714211609 82 0.0 0.0 0.00 0.00 0.00 34 1011.8
20240714210608 80 0.0 0.0 0.00 0.00 0.00 36 1011.9
20240714205609 81 0.0 0.0 0.00 0.00 0.00 36 1011.8
20240714204608 81 0.0 0.0 0.00 0.00 0.00 37 1011.6
20240714203608 82 0.0 0.0 0.00 0.00 0.00 35 1011.4
20240714202609 83 0.0 0.0 0.00 0.00 0.00 32 1011.2
20240714201608 84 0.0 0.0 0.00 0.00 0.00 32 1011.0
20240714200608 85 0.0 0.0 0.00 0.00 0.00 32 1010.9
20240714195608 85 0.0 0.0 0.00 0.00 0.00 30 1010.8
20240714194609 86 0.0 0.0 0.00 0.00 0.00 29 1010.6
20240714193609 87 0.0 0.0 0.00 0.00 0.00 29 1010.7
20240714192609 88 0.0 0.0 0.00 0.00 0.00 27 1010.5
20240714191609 89 0.0 0.0 0.00 0.00 0.00 27 1010.4
20240714190609 90 0.0 0.0 0.00 0.00 0.00 26 1010.2
20240714185608 91 0.0 0.0 0.00 0.00 0.00 25 1010.1
20240714184608 92 0.0 0.0 0.00 0.00 0.00 24 1010.0
20240714183608 93 0.0 0.0 0.00 0.00 0.00 25 1009.9
20240714182608 93 0.0 0.0 0.00 0.00 0.00 24 1009.8
20240714181608 93 0.0 0.0 0.00 0.00 0.00 24 1009.7
20240714180608 94 0.0 0.0 0.00 0.00 0.00 24 1009.6
20240714175609 94 0.0 0.0 0.00 0.00 0.00 23 1009.5
20240714174608 95 0.0 0.0 0.00 0.00 0.00 22 1009.5
20240714173609 95 0.0 0.0 0.00 0.00 0.00 22 1009.4
20240714172608 97 0.0 0.0 0.00 0.00 0.00 22 1009.2
20240714171608 97 0.0 0.0 0.00 0.00 0.00 21 1009.2
20240714170608 97 0.0 0.0 0.00 0.00 0.00 21 1009.2
20240714165608 99 0.0 0.0 0.00 0.00 0.00 21 1009.0
20240714164609 98 0.0 0.0 0.00 0.00 0.00 20 1009.1
20240714163608 98 0.0 0.0 0.00 0.00 0.00 19 1009.1
20240714162609 100 0.0 0.0 0.00 0.00 0.00 18 1009.0
20240714161609 100 0.0 0.0 0.00 0.00 0.00 18 1008.9
20240714160608 100 0.0 0.0 0.00 0.00 0.00 17 1008.9
20240714155608 102 0.0 0.0 0.00 0.00 0.00 18 1008.7
20240714154608 100 0.0 0.0 0.00 0.00 0.00 17 1009.0
20240714153608 102 0.0 0.0 0.00 0.00 0.00 17 1008.9
20240714152608 100 0.0 0.0 0.00 0.00 0.00 17 1009.0
20240714151608 101 0.0 0.0 0.00 0.00 0.00 18 1008.9
20240714150608 101 0.0 0.0 0.00 0.00 0.00 17 1009.0
20240714145608 102 0.0 0.0 0.00 0.00 0.00 17 1009.1
20240714144608 102 0.0 0.0 0.00 0.00 0.00 17 1009.1
20240714143609 102 0.0 0.0 0.00 0.00 0.00 18 1009.2
20240714142608 102 0.0 0.0 0.00 0.00 0.00 18 1009.3
20240714141608 103 0.0 0.0 0.00 0.00 0.00 19 1009.4
20240714140609 101 0.0 0.0 0.00 0.00 0.00 18 1009.6
20240714135608 102 0.0 0.0 0.00 0.00 0.00 19 1009.6
20240714134608 102 0.0 0.0 0.00 0.00 0.00 19 1009.8
20240714133608 101 0.0 0.0 0.00 0.00 0.00 18 1010.1
20240714132608 102 0.0 0.0 0.00 0.00 0.00 18 1010.1
20240714131608 102 0.0 0.0 0.00 0.00 0.00 19 1010.1
20240714130608 99 0.0 0.0 0.00 0.00 0.00 20 1010.4
20240714125608 99 0.0 0.0 0.00 0.00 0.00 19 1010.5
20240714124608 100 0.0 0.0 0.00 0.00 0.00 19 1010.4
20240714123608 98 0.0 0.0 0.00 0.00 0.00 20 1010.6
20240714122608 99 0.0 0.0 0.00 0.00 0.00 20 1010.8
20240714121608 99 0.0 0.0 0.00 0.00 0.00 22 1010.9
20240714120608 98 0.0 0.0 0.00 0.00 0.00 22 1011.1
20240714115608 99 0.0 0.0 0.00 0.00 0.00 22 1011.3
20240714114608 95 0.0 0.0 0.00 0.00 0.00 24 1011.7
20240714113608 97 0.0 0.0 0.00 0.00 0.00 24 1011.5
20240714112608 97 0.0 0.0 0.00 0.00 0.00 26 1011.7
20240714111608 95 0.0 0.0 0.00 0.00 0.00 25 1011.7
20240714110608 91 0.0 0.0 0.00 0.00 0.00 27 1012.2
20240714105608 93 0.0 0.0 0.00 0.00 0.00 27 1012.2
20240714104608 93 0.0 0.0 0.00 0.00 0.00 27 1012.3
20240714103608 91 0.0 0.0 0.00 0.00 0.00 27 1012.5
20240714102608 91 0.0 0.0 0.00 0.00 0.00 28 1012.7
20240714101608 92 0.0 0.0 0.00 0.00 0.00 27 1012.5
20240714100608 90 0.0 0.0 0.00 0.00 0.00 29 1012.7
20240714095608 87 0.0 0.0 0.00 0.00 0.00 30 1012.8
20240714094608 86 0.0 0.0 0.00 0.00 0.00 30 1013.0
20240714093608 87 0.0 0.0 0.00 0.00 0.00 30 1012.8
20240714092608 85 0.0 0.0 0.00 0.00 0.00 33 1013.0
20240714091608 84 0.0 0.0 0.00 0.00 0.00 33 1013.0
20240714090608 86 0.0 0.0 0.00 0.00 0.00 33 1012.8
20240714085608 84 0.0 0.0 0.00 0.00 0.00 33 1012.8
20240714084608 83 0.0 0.0 0.00 0.00 0.00 35 1013.0
20240714083608 83 0.0 0.0 0.00 0.00 0.00 34 1013.0
20240714082608 83 0.0 0.0 0.00 0.00 0.00 34 1013.0
20240714081608 82 0.0 0.0 0.00 0.00 0.00 36 1013.1
20240714080608 81 0.0 0.0 0.00 0.00 0.00 36 1013.2
20240714075608 78 0.0 0.0 0.00 0.00 0.00 37 1013.4
20240714074608 78 0.0 0.0 0.00 0.00 0.00 40 1013.5
20240714073608 76 0.0 0.0 0.00 0.00 0.00 41 1013.6
20240714072608 74 0.0 0.0 0.00 0.00 0.00 44 1013.7
20240714071609 74 0.0 0.0 0.00 0.00 0.00 45 1013.7
20240714070608 73 0.0 0.0 0.00 0.00 0.00 50 1013.8
20240714065608 72 0.0 0.0 0.00 0.00 0.00 56 1013.8
20240714064608 71 0.0 0.0 0.00 0.00 0.00 54 1013.8
20240714063608 70 0.0 0.0 0.00 0.00 0.00 59 1013.9
20240714062608 70 0.0 0.0 0.00 0.00 0.00 57 1013.8
20240714061608 69 0.0 0.0 0.00 0.00 0.00 55 1013.7
20240714060608 68 0.0 0.0 0.00 0.00 0.00 55 1013.8
20240714055608 69 0.0 0.0 0.00 0.00 0.00 54 1013.7
20240714054608 68 0.0 0.0 0.00 0.00 0.00 55 1013.7
20240714053609 68 0.0 0.0 0.00 0.00 0.00 53 1013.6
20240714052608 68 0.0 0.0 0.00 0.00 0.00 54 1013.5
20240714051608 68 0.0 0.0 0.00 0.00 0.00 55 1013.3
20240714050608 68 0.0 0.0 0.00 0.00 0.00 54 1013.2
20240714045608 69 0.0 0.0 0.00 0.00 0.00 52 1013.2
20240714044608 69 0.0 0.0 0.00 0.00 0.00 51 1013.0
20240714043608 69 0.0 0.0 0.00 0.00 0.00 53 1012.9
20240714042607 70 0.0 0.0 0.00 0.00 0.00 51 1012.8
20240714041607 70 0.0 0.0 0.00 0.00 0.00 52 1012.7
20240714040608 70 0.0 0.0 0.00 0.00 0.00 52 1012.6
20240714035608 71 0.0 0.0 0.00 0.00 0.00 49 1012.4
20240714034608 71 0.0 0.0 0.00 0.00 0.00 49 1012.3
20240714033608 71 0.0 0.0 0.00 0.00 0.00 48 1012.2
20240714032607 71 0.0 0.0 0.00 0.00 0.00 48 1012.0
20240714031607 71 0.0 0.0 0.00 0.00 0.00 48 1012.0
20240714030607 72 0.0 0.0 0.00 0.00 0.00 48 1011.9
20240714025608 72 0.0 0.0 0.00 0.00 0.00 48 1011.8
20240714024608 72 0.0 0.0 0.00 0.00 0.00 46 1011.7
20240714023608 73 0.0 0.0 0.00 0.00 0.00 46 1011.7
20240714022608 73 0.0 0.0 0.00 0.00 0.00 46 1011.6
20240714021608 73 0.0 0.0 0.00 0.00 0.00 46 1011.4
20240714020608 73 0.0 0.0 0.00 0.00 0.00 44 1011.2
20240714015608 74 0.0 0.0 0.00 0.00 0.00 44 1011.3
20240714014608 74 0.0 0.0 0.00 0.00 0.00 44 1011.2
20240714013608 74 0.0 0.0 0.00 0.00 0.00 45 1011.0
20240714012607 75 0.0 0.0 0.00 0.00 0.00 43 1011.1
20240714011608 75 0.0 0.0 0.00 0.00 0.00 42 1011.1
20240714010607 75 0.0 0.0 0.00 0.00 0.00 41 1011.0
20240714005607 76 0.0 0.0 0.00 0.00 0.00 42 1011.0
20240714004608 77 0.0 0.0 0.00 0.00 0.00 41 1010.9
20240714003607 77 0.0 0.0 0.00 0.00 0.00 39 1010.9
20240714002608 78 0.0 0.0 0.00 0.00 0.00 39 1010.9
20240714001608 80 0.0 0.0 0.00 0.00 0.00 36 1010.7
20240714000607 80 0.0 0.0 0.00 0.00 0.00 37 1010.8
20240713235607 81 0.0 0.0 0.00 0.00 0.00 34 1010.6